sensor_id;sensor_type;location;lat;lon;timestamp;P1;durP1;ratioP1;P2;durP2;ratioP2
35803;SDS011;21924;51.934;7.414;2022-12-07T00:00:35;28.92;;;15.82;;
35803;SDS011;21924;51.934;7.414;2022-12-07T00:03:19;25.70;;;15.65;;
35803;SDS011;21924;51.934;7.414;2022-12-07T00:06:04;24.95;;;14.77;;
35803;SDS011;21924;51.934;7.414;2022-12-07T00:08:49;30.30;;;14.60;;
35803;SDS011;21924;51.934;7.414;2022-12-07T00:11:34;25.73;;;14.20;;
35803;SDS011;21924;51.934;7.414;2022-12-07T00:14:18;27.95;;;14.27;;
35803;SDS011;21924;51.934;7.414;2022-12-07T00:17:03;27.50;;;14.25;;
35803;SDS011;21924;51.934;7.414;2022-12-07T00:19:47;28.05;;;14.90;;
35803;SDS011;21924;51.934;7.414;2022-12-07T00:22:31;28.92;;;15.00;;
35803;SDS011;21924;51.934;7.414;2022-12-07T00:25:16;24.50;;;14.52;;
35803;SDS011;21924;51.934;7.414;2022-12-07T00:28:00;27.65;;;14.25;;
35803;SDS011;21924;51.934;7.414;2022-12-07T00:30:44;27.33;;;15.50;;
35803;SDS011;21924;51.934;7.414;2022-12-07T00:33:28;29.77;;;15.88;;
35803;SDS011;21924;51.934;7.414;2022-12-07T00:36:14;28.13;;;13.93;;
35803;SDS011;21924;51.934;7.414;2022-12-07T00:39:00;26.85;;;14.30;;
35803;SDS011;21924;51.934;7.414;2022-12-07T00:41:44;24.27;;;14.52;;
35803;SDS011;21924;51.934;7.414;2022-12-07T00:44:28;27.17;;;13.93;;
35803;SDS011;21924;51.934;7.414;2022-12-07T00:47:12;21.63;;;13.13;;
35803;SDS011;21924;51.934;7.414;2022-12-07T00:49:57;24.75;;;13.70;;
35803;SDS011;21924;51.934;7.414;2022-12-07T00:52:41;24.80;;;14.10;;
35803;SDS011;21924;51.934;7.414;2022-12-07T00:55:25;23.83;;;13.95;;
35803;SDS011;21924;51.934;7.414;2022-12-07T00:58:10;28.05;;;14.25;;
35803;SDS011;21924;51.934;7.414;2022-12-07T01:00:55;26.08;;;13.60;;
35803;SDS011;21924;51.934;7.414;2022-12-07T01:03:45;24.88;;;14.45;;
35803;SDS011;21924;51.934;7.414;2022-12-07T01:06:29;34.47;;;14.60;;
35803;SDS011;21924;51.934;7.414;2022-12-07T01:09:14;30.33;;;13.82;;
35803;SDS011;21924;51.934;7.414;2022-12-07T01:11:58;24.52;;;12.98;;
35803;SDS011;21924;51.934;7.414;2022-12-07T01:14:42;26.70;;;13.95;;
35803;SDS011;21924;51.934;7.414;2022-12-07T01:17:27;22.33;;;12.63;;
35803;SDS011;21924;51.934;7.414;2022-12-07T01:20:12;24.77;;;13.30;;
35803;SDS011;21924;51.934;7.414;2022-12-07T01:22:57;23.33;;;13.82;;
35803;SDS011;21924;51.934;7.414;2022-12-07T01:25:41;25.00;;;13.95;;
35803;SDS011;21924;51.934;7.414;2022-12-07T01:28:25;27.50;;;14.90;;
35803;SDS011;21924;51.934;7.414;2022-12-07T01:31:12;30.80;;;14.48;;
35803;SDS011;21924;51.934;7.414;2022-12-07T01:34:01;30.55;;;15.60;;
35803;SDS011;21924;51.934;7.414;2022-12-07T01:36:45;25.60;;;14.65;;
35803;SDS011;21924;51.934;7.414;2022-12-07T01:39:29;31.77;;;14.77;;
35803;SDS011;21924;51.934;7.414;2022-12-07T01:42:14;27.42;;;14.13;;
35803;SDS011;21924;51.934;7.414;2022-12-07T01:48:01;29.77;;;15.03;;
35803;SDS011;21924;51.934;7.414;2022-12-07T01:50:47;39.13;;;16.88;;
35803;SDS011;21924;51.934;7.414;2022-12-07T01:53:34;29.93;;;15.50;;
35803;SDS011;21924;51.934;7.414;2022-12-07T01:56:22;34.70;;;15.47;;
35803;SDS011;21924;51.934;7.414;2022-12-07T01:59:10;27.10;;;14.87;;
35803;SDS011;21924;51.934;7.414;2022-12-07T02:01:54;24.60;;;14.07;;
35803;SDS011;21924;51.934;7.414;2022-12-07T02:04:39;31.43;;;17.13;;
35803;SDS011;21924;51.934;7.414;2022-12-07T02:07:23;26.77;;;15.13;;
35803;SDS011;21924;51.934;7.414;2022-12-07T02:10:15;32.90;;;16.27;;
35803;SDS011;21924;51.934;7.414;2022-12-07T02:13:08;35.00;;;15.43;;
35803;SDS011;21924;51.934;7.414;2022-12-07T02:22:18;27.83;;;14.30;;
35803;SDS011;21924;51.934;7.414;2022-12-07T02:28:28;28.17;;;14.80;;
35803;SDS011;21924;51.934;7.414;2022-12-07T02:31:17;28.23;;;15.50;;
35803;SDS011;21924;51.934;7.414;2022-12-07T02:34:09;30.23;;;14.70;;
35803;SDS011;21924;51.934;7.414;2022-12-07T02:37:06;30.47;;;15.37;;
35803;SDS011;21924;51.934;7.414;2022-12-07T02:40:08;31.17;;;15.17;;
35803;SDS011;21924;51.934;7.414;2022-12-07T02:43:16;28.73;;;15.23;;
35803;SDS011;21924;51.934;7.414;2022-12-07T02:46:13;28.27;;;15.20;;
35803;SDS011;21924;51.934;7.414;2022-12-07T02:49:00;23.67;;;14.70;;
35803;SDS011;21924;51.934;7.414;2022-12-07T02:51:45;32.20;;;14.60;;
35803;SDS011;21924;51.934;7.414;2022-12-07T02:54:30;28.13;;;14.97;;
35803;SDS011;21924;51.934;7.414;2022-12-07T03:00:14;31.43;;;15.13;;
35803;SDS011;21924;51.934;7.414;2022-12-07T03:03:06;30.43;;;15.20;;
35803;SDS011;21924;51.934;7.414;2022-12-07T03:06:06;25.30;;;14.70;;
35803;SDS011;21924;51.934;7.414;2022-12-07T03:09:04;29.10;;;15.70;;
35803;SDS011;21924;51.934;7.414;2022-12-07T03:12:10;23.40;;;11.93;;
35803;SDS011;21924;51.934;7.414;2022-12-07T03:15:03;31.80;;;15.83;;
35803;SDS011;21924;51.934;7.414;2022-12-07T03:17:52;38.00;;;15.83;;
35803;SDS011;21924;51.934;7.414;2022-12-07T03:20:39;34.67;;;15.73;;
35803;SDS011;21924;51.934;7.414;2022-12-07T03:23:26;30.50;;;15.00;;
35803;SDS011;21924;51.934;7.414;2022-12-07T03:26:13;36.27;;;16.67;;
35803;SDS011;21924;51.934;7.414;2022-12-07T03:29:02;29.73;;;15.63;;
35803;SDS011;21924;51.934;7.414;2022-12-07T03:31:55;27.27;;;14.37;;
35803;SDS011;21924;51.934;7.414;2022-12-07T03:34:57;37.83;;;15.73;;
35803;SDS011;21924;51.934;7.414;2022-12-07T03:37:59;32.73;;;14.47;;
35803;SDS011;21924;51.934;7.414;2022-12-07T03:40:52;35.73;;;15.37;;
35803;SDS011;21924;51.934;7.414;2022-12-07T03:43:44;27.63;;;14.00;;
35803;SDS011;21924;51.934;7.414;2022-12-07T03:49:22;31.17;;;15.63;;
35803;SDS011;21924;51.934;7.414;2022-12-07T03:52:22;28.10;;;14.20;;
35803;SDS011;21924;51.934;7.414;2022-12-07T03:58:12;32.60;;;15.10;;
35803;SDS011;21924;51.934;7.414;2022-12-07T04:01:02;27.47;;;13.13;;
35803;SDS011;21924;51.934;7.414;2022-12-07T04:03:47;25.53;;;12.93;;
35803;SDS011;21924;51.934;7.414;2022-12-07T04:06:31;24.90;;;13.30;;
35803;SDS011;21924;51.934;7.414;2022-12-07T04:09:15;30.17;;;13.90;;
35803;SDS011;21924;51.934;7.414;2022-12-07T04:12:00;25.03;;;11.77;;
35803;SDS011;21924;51.934;7.414;2022-12-07T04:14:44;24.57;;;12.87;;
35803;SDS011;21924;51.934;7.414;2022-12-07T04:17:28;18.50;;;11.47;;
35803;SDS011;21924;51.934;7.414;2022-12-07T04:20:12;24.77;;;11.87;;
35803;SDS011;21924;51.934;7.414;2022-12-07T04:22:57;27.37;;;12.53;;
35803;SDS011;21924;51.934;7.414;2022-12-07T04:25:41;16.43;;;10.47;;
35803;SDS011;21924;51.934;7.414;2022-12-07T04:28:25;28.70;;;12.00;;
35803;SDS011;21924;51.934;7.414;2022-12-07T04:31:09;22.80;;;11.40;;
35803;SDS011;21924;51.934;7.414;2022-12-07T04:33:54;26.20;;;11.70;;
35803;SDS011;21924;51.934;7.414;2022-12-07T04:36:38;32.37;;;10.93;;
35803;SDS011;21924;51.934;7.414;2022-12-07T04:39:27;25.77;;;12.43;;
35803;SDS011;21924;51.934;7.414;2022-12-07T04:42:13;21.67;;;10.63;;
35803;SDS011;21924;51.934;7.414;2022-12-07T04:44:57;20.10;;;10.37;;
35803;SDS011;21924;51.934;7.414;2022-12-07T04:47:41;25.37;;;10.27;;
35803;SDS011;21924;51.934;7.414;2022-12-07T04:50:25;21.00;;;9.40;;
35803;SDS011;21924;51.934;7.414;2022-12-07T04:53:10;22.97;;;10.17;;
35803;SDS011;21924;51.934;7.414;2022-12-07T04:55:54;22.90;;;10.20;;
35803;SDS011;21924;51.934;7.414;2022-12-07T04:58:38;19.50;;;10.47;;
35803;SDS011;21924;51.934;7.414;2022-12-07T05:01:22;17.33;;;8.80;;
35803;SDS011;21924;51.934;7.414;2022-12-07T05:04:07;17.43;;;9.30;;
35803;SDS011;21924;51.934;7.414;2022-12-07T05:06:52;20.97;;;9.33;;
35803;SDS011;21924;51.934;7.414;2022-12-07T05:09:36;16.57;;;8.47;;
35803;SDS011;21924;51.934;7.414;2022-12-07T05:12:20;20.47;;;8.93;;
35803;SDS011;21924;51.934;7.414;2022-12-07T05:15:05;22.33;;;8.93;;
35803;SDS011;21924;51.934;7.414;2022-12-07T05:17:49;23.10;;;9.23;;
35803;SDS011;21924;51.934;7.414;2022-12-07T05:20:35;17.48;;;8.07;;
35803;SDS011;21924;51.934;7.414;2022-12-07T05:23:19;20.40;;;8.30;;
35803;SDS011;21924;51.934;7.414;2022-12-07T05:26:04;14.57;;;8.30;;
35803;SDS011;21924;51.934;7.414;2022-12-07T05:28:52;15.63;;;7.57;;
35803;SDS011;21924;51.934;7.414;2022-12-07T05:31:37;21.03;;;9.37;;
35803;SDS011;21924;51.934;7.414;2022-12-07T05:34:22;19.90;;;9.27;;
35803;SDS011;21924;51.934;7.414;2022-12-07T05:37:06;17.40;;;8.97;;
35803;SDS011;21924;51.934;7.414;2022-12-07T05:39:50;22.97;;;9.13;;
35803;SDS011;21924;51.934;7.414;2022-12-07T05:42:35;19.07;;;8.37;;
35803;SDS011;21924;51.934;7.414;2022-12-07T05:45:19;17.97;;;8.50;;
35803;SDS011;21924;51.934;7.414;2022-12-07T05:48:03;20.40;;;8.40;;
35803;SDS011;21924;51.934;7.414;2022-12-07T05:50:48;13.67;;;7.80;;
35803;SDS011;21924;51.934;7.414;2022-12-07T05:53:33;17.80;;;8.70;;
35803;SDS011;21924;51.934;7.414;2022-12-07T05:56:17;20.93;;;8.63;;
35803;SDS011;21924;51.934;7.414;2022-12-07T05:59:01;17.37;;;8.77;;
35803;SDS011;21924;51.934;7.414;2022-12-07T06:02:06;23.93;;;8.67;;
35803;SDS011;21924;51.934;7.414;2022-12-07T06:04:52;16.33;;;8.27;;
35803;SDS011;21924;51.934;7.414;2022-12-07T06:07:37;15.83;;;7.23;;
35803;SDS011;21924;51.934;7.414;2022-12-07T06:10:21;16.30;;;7.80;;
35803;SDS011;21924;51.934;7.414;2022-12-07T06:13:05;26.10;;;8.00;;
35803;SDS011;21924;51.934;7.414;2022-12-07T06:15:50;16.80;;;7.80;;
35803;SDS011;21924;51.934;7.414;2022-12-07T06:18:34;13.30;;;7.43;;
35803;SDS011;21924;51.934;7.414;2022-12-07T06:21:18;12.40;;;7.17;;
35803;SDS011;21924;51.934;7.414;2022-12-07T06:24:02;16.97;;;7.70;;
35803;SDS011;21924;51.934;7.414;2022-12-07T06:26:47;13.30;;;7.67;;
35803;SDS011;21924;51.934;7.414;2022-12-07T06:29:31;19.73;;;7.60;;
35803;SDS011;21924;51.934;7.414;2022-12-07T06:32:16;14.87;;;6.80;;
35803;SDS011;21924;51.934;7.414;2022-12-07T06:35:00;15.20;;;6.30;;
35803;SDS011;21924;51.934;7.414;2022-12-07T06:37:44;20.83;;;7.20;;
35803;SDS011;21924;51.934;7.414;2022-12-07T06:40:28;12.47;;;6.47;;
35803;SDS011;21924;51.934;7.414;2022-12-07T06:43:13;20.90;;;7.30;;
35803;SDS011;21924;51.934;7.414;2022-12-07T06:45:57;10.27;;;6.97;;
35803;SDS011;21924;51.934;7.414;2022-12-07T06:48:42;14.23;;;7.40;;
35803;SDS011;21924;51.934;7.414;2022-12-07T06:51:27;15.03;;;7.93;;
35803;SDS011;21924;51.934;7.414;2022-12-07T06:54:11;12.07;;;7.43;;
35803;SDS011;21924;51.934;7.414;2022-12-07T06:56:57;17.25;;;6.38;;
35803;SDS011;21924;51.934;7.414;2022-12-07T06:59:41;12.53;;;6.67;;
35803;SDS011;21924;51.934;7.414;2022-12-07T07:02:25;12.10;;;6.80;;
35803;SDS011;21924;51.934;7.414;2022-12-07T07:05:10;16.80;;;7.77;;
35803;SDS011;21924;51.934;7.414;2022-12-07T07:07:54;10.90;;;6.77;;
35803;SDS011;21924;51.934;7.414;2022-12-07T07:10:38;11.37;;;6.30;;
35803;SDS011;21924;51.934;7.414;2022-12-07T07:13:23;7.33;;;6.17;;
35803;SDS011;21924;51.934;7.414;2022-12-07T07:16:07;16.30;;;6.47;;
35803;SDS011;21924;51.934;7.414;2022-12-07T07:18:51;15.10;;;6.37;;
35803;SDS011;21924;51.934;7.414;2022-12-07T07:21:36;12.33;;;6.47;;
35803;SDS011;21924;51.934;7.414;2022-12-07T07:24:20;9.37;;;5.93;;
35803;SDS011;21924;51.934;7.414;2022-12-07T07:27:04;11.53;;;6.20;;
35803;SDS011;21924;51.934;7.414;2022-12-07T07:29:49;10.60;;;6.30;;
35803;SDS011;21924;51.934;7.414;2022-12-07T07:32:33;16.23;;;6.07;;
35803;SDS011;21924;51.934;7.414;2022-12-07T07:35:18;8.43;;;6.23;;
35803;SDS011;21924;51.934;7.414;2022-12-07T07:38:03;17.80;;;6.30;;
35803;SDS011;21924;51.934;7.414;2022-12-07T07:40:47;12.90;;;5.77;;
35803;SDS011;21924;51.934;7.414;2022-12-07T07:43:32;12.27;;;6.07;;
35803;SDS011;21924;51.934;7.414;2022-12-07T07:46:16;21.63;;;6.50;;
35803;SDS011;21924;51.934;7.414;2022-12-07T07:49:00;10.27;;;6.07;;
35803;SDS011;21924;51.934;7.414;2022-12-07T07:51:45;13.43;;;7.60;;
35803;SDS011;21924;51.934;7.414;2022-12-07T07:54:29;8.87;;;6.27;;
35803;SDS011;21924;51.934;7.414;2022-12-07T07:57:13;7.40;;;5.30;;
35803;SDS011;21924;51.934;7.414;2022-12-07T07:59:57;11.23;;;5.53;;
35803;SDS011;21924;51.934;7.414;2022-12-07T08:02:42;10.83;;;6.53;;
35803;SDS011;21924;51.934;7.414;2022-12-07T08:05:26;15.33;;;6.83;;
35803;SDS011;21924;51.934;7.414;2022-12-07T08:08:11;11.40;;;6.50;;
35803;SDS011;21924;51.934;7.414;2022-12-07T08:10:55;15.67;;;6.53;;
35803;SDS011;21924;51.934;7.414;2022-12-07T08:13:39;15.70;;;6.47;;
35803;SDS011;21924;51.934;7.414;2022-12-07T08:16:23;13.07;;;5.83;;
35803;SDS011;21924;51.934;7.414;2022-12-07T08:19:08;15.97;;;7.47;;
35803;SDS011;21924;51.934;7.414;2022-12-07T08:21:52;14.40;;;7.60;;
35803;SDS011;21924;51.934;7.414;2022-12-07T08:24:36;12.83;;;6.00;;
35803;SDS011;21924;51.934;7.414;2022-12-07T08:27:20;14.07;;;7.43;;
35803;SDS011;21924;51.934;7.414;2022-12-07T08:30:07;18.27;;;7.73;;
35803;SDS011;21924;51.934;7.414;2022-12-07T08:32:52;13.43;;;6.30;;
35803;SDS011;21924;51.934;7.414;2022-12-07T08:35:36;14.73;;;6.80;;
35803;SDS011;21924;51.934;7.414;2022-12-07T08:38:20;23.80;;;7.30;;
35803;SDS011;21924;51.934;7.414;2022-12-07T08:41:05;23.50;;;7.67;;
35803;SDS011;21924;51.934;7.414;2022-12-07T08:43:51;10.50;;;6.77;;
35803;SDS011;21924;51.934;7.414;2022-12-07T08:49:27;22.90;;;6.83;;
35803;SDS011;21924;51.934;7.414;2022-12-07T08:52:16;21.20;;;6.50;;
35803;SDS011;21924;51.934;7.414;2022-12-07T08:55:01;20.80;;;7.03;;
35803;SDS011;21924;51.934;7.414;2022-12-07T08:57:48;10.13;;;5.43;;
35803;SDS011;21924;51.934;7.414;2022-12-07T09:00:32;24.33;;;9.20;;
35803;SDS011;21924;51.934;7.414;2022-12-07T09:03:16;19.27;;;7.53;;
35803;SDS011;21924;51.934;7.414;2022-12-07T09:06:01;18.17;;;7.80;;
35803;SDS011;21924;51.934;7.414;2022-12-07T09:08:46;13.83;;;7.43;;
35803;SDS011;21924;51.934;7.414;2022-12-07T09:11:33;18.80;;;7.87;;
35803;SDS011;21924;51.934;7.414;2022-12-07T09:14:17;17.67;;;6.77;;
35803;SDS011;21924;51.934;7.414;2022-12-07T09:17:09;24.07;;;7.57;;
35803;SDS011;21924;51.934;7.414;2022-12-07T09:19:56;15.90;;;6.67;;
35803;SDS011;21924;51.934;7.414;2022-12-07T09:22:41;14.73;;;6.03;;
35803;SDS011;21924;51.934;7.414;2022-12-07T09:25:25;19.93;;;6.47;;
35803;SDS011;21924;51.934;7.414;2022-12-07T09:28:09;12.83;;;6.10;;
35803;SDS011;21924;51.934;7.414;2022-12-07T09:30:54;16.47;;;5.97;;
35803;SDS011;21924;51.934;7.414;2022-12-07T09:33:38;11.00;;;6.00;;
35803;SDS011;21924;51.934;7.414;2022-12-07T09:36:22;15.00;;;6.47;;
35803;SDS011;21924;51.934;7.414;2022-12-07T09:39:06;13.97;;;6.73;;
35803;SDS011;21924;51.934;7.414;2022-12-07T09:41:51;12.63;;;6.70;;
35803;SDS011;21924;51.934;7.414;2022-12-07T09:44:35;13.43;;;7.70;;
35803;SDS011;21924;51.934;7.414;2022-12-07T09:47:19;14.30;;;7.40;;
35803;SDS011;21924;51.934;7.414;2022-12-07T09:50:05;15.03;;;7.67;;
35803;SDS011;21924;51.934;7.414;2022-12-07T09:53:00;19.55;;;7.65;;
35803;SDS011;21924;51.934;7.414;2022-12-07T09:56:13;20.23;;;7.80;;
35803;SDS011;21924;51.934;7.414;2022-12-07T09:58:59;22.53;;;8.73;;
35803;SDS011;21924;51.934;7.414;2022-12-07T10:01:47;21.52;;;8.45;;
35803;SDS011;21924;51.934;7.414;2022-12-07T10:04:32;25.23;;;8.27;;
35803;SDS011;21924;51.934;7.414;2022-12-07T10:07:17;15.82;;;8.30;;
35803;SDS011;21924;51.934;7.414;2022-12-07T10:10:02;21.35;;;7.40;;
35803;SDS011;21924;51.934;7.414;2022-12-07T10:12:59;16.92;;;7.82;;
35803;SDS011;21924;51.934;7.414;2022-12-07T10:15:54;11.00;;;6.38;;
35803;SDS011;21924;51.934;7.414;2022-12-07T10:18:40;10.90;;;6.15;;
35803;SDS011;21924;51.934;7.414;2022-12-07T10:21:25;21.17;;;7.10;;
35803;SDS011;21924;51.934;7.414;2022-12-07T10:26:54;20.80;;;5.88;;
35803;SDS011;21924;51.934;7.414;2022-12-07T10:29:40;13.68;;;5.75;;
35803;SDS011;21924;51.934;7.414;2022-12-07T10:32:35;16.50;;;6.78;;
35803;SDS011;21924;51.934;7.414;2022-12-07T10:35:21;26.30;;;7.10;;
35803;SDS011;21924;51.934;7.414;2022-12-07T10:38:07;17.00;;;5.95;;
35803;SDS011;21924;51.934;7.414;2022-12-07T10:41:06;11.20;;;6.10;;
35803;SDS011;21924;51.934;7.414;2022-12-07T10:43:54;22.88;;;6.70;;
35803;SDS011;21924;51.934;7.414;2022-12-07T10:46:50;17.23;;;5.68;;
35803;SDS011;21924;51.934;7.414;2022-12-07T10:49:50;9.05;;;5.88;;
35803;SDS011;21924;51.934;7.414;2022-12-07T10:56:59;11.27;;;4.78;;
35803;SDS011;21924;51.934;7.414;2022-12-07T11:17:45;16.35;;;5.00;;
35803;SDS011;21924;51.934;7.414;2022-12-07T11:20:54;7.38;;;4.38;;
35803;SDS011;21924;51.934;7.414;2022-12-07T11:24:04;19.80;;;6.53;;
35803;SDS011;21924;51.934;7.414;2022-12-07T11:27:00;8.02;;;4.40;;
35803;SDS011;21924;51.934;7.414;2022-12-07T11:42:14;7.30;;;4.10;;
35803;SDS011;21924;51.934;7.414;2022-12-07T11:48:17;7.55;;;3.95;;
35803;SDS011;21924;51.934;7.414;2022-12-07T11:51:15;6.05;;;3.88;;
35803;SDS011;21924;51.934;7.414;2022-12-07T11:54:04;4.65;;;3.70;;
35803;SDS011;21924;51.934;7.414;2022-12-07T11:56:56;5.43;;;3.75;;
35803;SDS011;21924;51.934;7.414;2022-12-07T11:59:51;8.13;;;4.30;;
35803;SDS011;21924;51.934;7.414;2022-12-07T12:02:46;14.60;;;5.05;;
35803;SDS011;21924;51.934;7.414;2022-12-07T12:05:39;21.30;;;4.50;;
35803;SDS011;21924;51.934;7.414;2022-12-07T12:08:26;8.82;;;4.63;;
35803;SDS011;21924;51.934;7.414;2022-12-07T12:11:23;8.77;;;4.40;;
35803;SDS011;21924;51.934;7.414;2022-12-07T12:14:48;11.02;;;4.53;;
35803;SDS011;21924;51.934;7.414;2022-12-07T12:23:37;8.55;;;4.15;;
35803;SDS011;21924;51.934;7.414;2022-12-07T12:26:29;18.70;;;4.97;;
35803;SDS011;21924;51.934;7.414;2022-12-07T12:29:21;10.00;;;4.93;;
35803;SDS011;21924;51.934;7.414;2022-12-07T12:32:36;6.20;;;4.50;;
35803;SDS011;21924;51.934;7.414;2022-12-07T12:35:31;12.20;;;4.57;;
35803;SDS011;21924;51.934;7.414;2022-12-07T12:41:50;9.45;;;4.03;;
35803;SDS011;21924;51.934;7.414;2022-12-07T12:50:35;11.13;;;4.15;;
35803;SDS011;21924;51.934;7.414;2022-12-07T12:53:22;6.85;;;3.92;;
35803;SDS011;21924;51.934;7.414;2022-12-07T12:56:26;6.18;;;3.38;;
35803;SDS011;21924;51.934;7.414;2022-12-07T12:59:28;12.32;;;4.03;;
35803;SDS011;21924;51.934;7.414;2022-12-07T13:02:55;16.92;;;3.30;;
35803;SDS011;21924;51.934;7.414;2022-12-07T13:05:32;8.90;;;3.58;;
35803;SDS011;21924;51.934;7.414;2022-12-07T13:08:22;4.57;;;3.35;;
35803;SDS011;21924;51.934;7.414;2022-12-07T13:11:31;12.98;;;3.50;;
35803;SDS011;21924;51.934;7.414;2022-12-07T13:20:39;8.05;;;3.88;;
35803;SDS011;21924;51.934;7.414;2022-12-07T13:32:17;9.40;;;3.42;;
35803;SDS011;21924;51.934;7.414;2022-12-07T13:35:26;16.02;;;3.90;;
35803;SDS011;21924;51.934;7.414;2022-12-07T13:38:16;14.45;;;3.67;;
35803;SDS011;21924;51.934;7.414;2022-12-07T13:41:15;7.55;;;3.63;;
35803;SDS011;21924;51.934;7.414;2022-12-07T13:44:11;8.75;;;3.72;;
35803;SDS011;21924;51.934;7.414;2022-12-07T13:50:23;7.32;;;4.05;;
35803;SDS011;21924;51.934;7.414;2022-12-07T13:53:15;8.05;;;3.70;;
35803;SDS011;21924;51.934;7.414;2022-12-07T13:55:59;10.80;;;3.45;;
35803;SDS011;21924;51.934;7.414;2022-12-07T13:58:44;7.15;;;3.60;;
35803;SDS011;21924;51.934;7.414;2022-12-07T14:01:32;8.73;;;3.83;;
35803;SDS011;21924;51.934;7.414;2022-12-07T14:04:35;4.60;;;3.20;;
35803;SDS011;21924;51.934;7.414;2022-12-07T14:07:24;6.25;;;3.22;;
35803;SDS011;21924;51.934;7.414;2022-12-07T14:13:34;4.03;;;2.65;;
35803;SDS011;21924;51.934;7.414;2022-12-07T14:16:35;6.05;;;2.80;;
35803;SDS011;21924;51.934;7.414;2022-12-07T14:22:40;2.63;;;2.38;;
35803;SDS011;21924;51.934;7.414;2022-12-07T14:25:25;5.45;;;2.58;;
35803;SDS011;21924;51.934;7.414;2022-12-07T14:28:24;4.97;;;2.50;;
35803;SDS011;21924;51.934;7.414;2022-12-07T14:31:17;9.00;;;3.10;;
35803;SDS011;21924;51.934;7.414;2022-12-07T14:34:05;7.95;;;2.83;;
35803;SDS011;21924;51.934;7.414;2022-12-07T14:36:55;5.43;;;3.20;;
35803;SDS011;21924;51.934;7.414;2022-12-07T14:39:39;4.53;;;3.17;;
35803;SDS011;21924;51.934;7.414;2022-12-07T14:42:24;4.88;;;2.78;;
35803;SDS011;21924;51.934;7.414;2022-12-07T14:45:21;9.95;;;3.53;;
35803;SDS011;21924;51.934;7.414;2022-12-07T14:48:15;6.25;;;2.92;;
35803;SDS011;21924;51.934;7.414;2022-12-07T14:50:59;8.13;;;4.88;;
35803;SDS011;21924;51.934;7.414;2022-12-07T14:53:44;6.63;;;2.88;;
35803;SDS011;21924;51.934;7.414;2022-12-07T14:56:31;9.77;;;3.38;;
35803;SDS011;21924;51.934;7.414;2022-12-07T14:59:16;10.57;;;3.50;;
35803;SDS011;21924;51.934;7.414;2022-12-07T15:02:00;5.85;;;3.50;;
35803;SDS011;21924;51.934;7.414;2022-12-07T15:04:45;11.27;;;4.15;;
35803;SDS011;21924;51.934;7.414;2022-12-07T15:07:29;8.05;;;3.55;;
35803;SDS011;21924;51.934;7.414;2022-12-07T15:10:24;7.32;;;3.83;;
35803;SDS011;21924;51.934;7.414;2022-12-07T15:13:13;5.20;;;3.75;;
35803;SDS011;21924;51.934;7.414;2022-12-07T15:16:18;9.98;;;3.58;;
35803;SDS011;21924;51.934;7.414;2022-12-07T15:19:04;8.65;;;3.58;;
35803;SDS011;21924;51.934;7.414;2022-12-07T15:21:49;13.55;;;4.30;;
35803;SDS011;21924;51.934;7.414;2022-12-07T15:24:33;7.47;;;4.00;;
35803;SDS011;21924;51.934;7.414;2022-12-07T15:27:17;10.55;;;4.20;;
35803;SDS011;21924;51.934;7.414;2022-12-07T15:30:02;6.18;;;4.13;;
35803;SDS011;21924;51.934;7.414;2022-12-07T15:32:51;11.20;;;4.18;;
35803;SDS011;21924;51.934;7.414;2022-12-07T15:35:44;9.48;;;4.60;;
35803;SDS011;21924;51.934;7.414;2022-12-07T15:38:29;11.88;;;4.32;;
35803;SDS011;21924;51.934;7.414;2022-12-07T15:41:14;8.93;;;4.50;;
35803;SDS011;21924;51.934;7.414;2022-12-07T15:43:59;13.27;;;5.03;;
35803;SDS011;21924;51.934;7.414;2022-12-07T15:47:03;13.45;;;4.60;;
35803;SDS011;21924;51.934;7.414;2022-12-07T15:49:48;10.97;;;5.33;;
35803;SDS011;21924;51.934;7.414;2022-12-07T15:52:32;10.70;;;5.35;;
35803;SDS011;21924;51.934;7.414;2022-12-07T15:55:16;12.50;;;5.53;;
35803;SDS011;21924;51.934;7.414;2022-12-07T15:58:01;15.38;;;5.30;;
35803;SDS011;21924;51.934;7.414;2022-12-07T16:00:45;14.38;;;5.20;;
35803;SDS011;21924;51.934;7.414;2022-12-07T16:03:30;14.85;;;5.88;;
35803;SDS011;21924;51.934;7.414;2022-12-07T16:06:15;8.15;;;6.05;;
35803;SDS011;21924;51.934;7.414;2022-12-07T16:11:45;9.15;;;6.13;;
35803;SDS011;21924;51.934;7.414;2022-12-07T16:14:29;10.88;;;5.68;;
35803;SDS011;21924;51.934;7.414;2022-12-07T16:17:15;7.75;;;5.30;;
35803;SDS011;21924;51.934;7.414;2022-12-07T16:19:59;9.40;;;5.55;;
35803;SDS011;21924;51.934;7.414;2022-12-07T16:22:44;11.98;;;6.15;;
35803;SDS011;21924;51.934;7.414;2022-12-07T16:25:28;9.80;;;5.45;;
35803;SDS011;21924;51.934;7.414;2022-12-07T16:28:12;17.98;;;5.95;;
35803;SDS011;21924;51.934;7.414;2022-12-07T16:31:01;8.82;;;5.40;;
35803;SDS011;21924;51.934;7.414;2022-12-07T16:33:52;17.13;;;6.45;;
35803;SDS011;21924;51.934;7.414;2022-12-07T16:36:37;18.27;;;6.63;;
35803;SDS011;21924;51.934;7.414;2022-12-07T16:39:22;14.60;;;6.07;;
35803;SDS011;21924;51.934;7.414;2022-12-07T16:42:06;11.52;;;6.85;;
35803;SDS011;21924;51.934;7.414;2022-12-07T16:44:50;10.88;;;5.82;;
35803;SDS011;21924;51.934;7.414;2022-12-07T16:47:37;7.05;;;5.63;;
35803;SDS011;21924;51.934;7.414;2022-12-07T16:50:21;16.03;;;5.70;;
35803;SDS011;21924;51.934;7.414;2022-12-07T16:53:06;12.23;;;5.57;;
35803;SDS011;21924;51.934;7.414;2022-12-07T16:55:51;10.20;;;6.65;;
35803;SDS011;21924;51.934;7.414;2022-12-07T16:58:36;15.05;;;6.03;;
35803;SDS011;21924;51.934;7.414;2022-12-07T17:01:20;11.50;;;6.18;;
35803;SDS011;21924;51.934;7.414;2022-12-07T17:04:06;13.27;;;6.70;;
35803;SDS011;21924;51.934;7.414;2022-12-07T17:06:50;19.40;;;6.47;;
35803;SDS011;21924;51.934;7.414;2022-12-07T17:09:35;13.15;;;6.53;;
35803;SDS011;21924;51.934;7.414;2022-12-07T17:12:19;9.98;;;6.22;;
35803;SDS011;21924;51.934;7.414;2022-12-07T17:15:04;10.07;;;6.53;;
35803;SDS011;21924;51.934;7.414;2022-12-07T17:18:00;12.70;;;6.43;;
35803;SDS011;21924;51.934;7.414;2022-12-07T17:20:45;17.67;;;6.70;;
35803;SDS011;21924;51.934;7.414;2022-12-07T17:23:29;19.15;;;7.22;;
35803;SDS011;21924;51.934;7.414;2022-12-07T17:26:16;10.95;;;6.90;;
35803;SDS011;21924;51.934;7.414;2022-12-07T17:29:02;13.68;;;7.90;;
35803;SDS011;21924;51.934;7.414;2022-12-07T17:31:49;14.23;;;7.70;;
35803;SDS011;21924;51.934;7.414;2022-12-07T17:34:33;13.73;;;7.22;;
35803;SDS011;21924;51.934;7.414;2022-12-07T17:37:17;15.85;;;7.65;;
35803;SDS011;21924;51.934;7.414;2022-12-07T17:40:01;18.83;;;7.63;;
35803;SDS011;21924;51.934;7.414;2022-12-07T17:42:47;9.70;;;6.95;;
35803;SDS011;21924;51.934;7.414;2022-12-07T17:45:35;13.95;;;6.95;;
35803;SDS011;21924;51.934;7.414;2022-12-07T17:48:20;12.60;;;6.97;;
35803;SDS011;21924;51.934;7.414;2022-12-07T17:51:04;16.70;;;9.27;;
35803;SDS011;21924;51.934;7.414;2022-12-07T17:54:07;12.10;;;7.03;;
35803;SDS011;21924;51.934;7.414;2022-12-07T17:56:53;10.65;;;6.32;;
35803;SDS011;21924;51.934;7.414;2022-12-07T17:59:37;14.23;;;6.60;;
35803;SDS011;21924;51.934;7.414;2022-12-07T18:02:21;19.35;;;6.63;;
35803;SDS011;21924;51.934;7.414;2022-12-07T18:05:06;6.88;;;5.75;;
35803;SDS011;21924;51.934;7.414;2022-12-07T18:07:50;12.85;;;6.15;;
35803;SDS011;21924;51.934;7.414;2022-12-07T18:10:35;7.03;;;5.40;;
35803;SDS011;21924;51.934;7.414;2022-12-07T18:13:19;9.52;;;5.70;;
35803;SDS011;21924;51.934;7.414;2022-12-07T18:16:20;12.85;;;6.85;;
35803;SDS011;21924;51.934;7.414;2022-12-07T18:19:07;16.40;;;7.88;;
35803;SDS011;21924;51.934;7.414;2022-12-07T18:21:51;21.30;;;7.33;;